Brimley, MI (49715)

2:46 AM EDT on July 25, 2016 (GMT -0400)
BMCC on Lake Superior | | Change Station

Elev 645 ft 46.45 °N, 84.61 °W | Updated 2 seconds ago

Scattered Clouds
Scattered Clouds
67.8 °F
Feels Like 67.8 °F
N
2.8
Wind Variable Wind from West
Gusts 5.6 mph

Today
High -- | Low -- °F
--% Chance of Precip.
Yesterday
High -- | Low -- °F
Precip. -- in
Pressure 29.77 in
Visibility 6.0 miles
Clouds Scattered Clouds 200 ft
Dew Point 66 °F
Humidity 95%
Rainfall 0.00 in
Snow Depth Not available.
6:11 AM 9:17 PM
Waning Gibbous, 69% visible
SPECI KANJ 250623Z AUTO 26003KT 6SM BR SCT002 20/19 A2977 RMK AO2 T02000194
Pressure 29.77 in
Visibility 6.0 miles
Clouds Scattered Clouds 200 ft
Dew Point 66 °F
Humidity 95%
Rainfall 0.00 in
Snow Depth Not available.
6:11 AM 9:17 PM
Waning Gibbous, 69% visible
SPECI KANJ 250623Z AUTO 26003KT 6SM BR SCT002 20/19 A2977 RMK AO2 T02000194

10-Day Weather Forecast

Almanac

Astronomy

Jul. 25, 2016 Rise Set
Actual Time
Civil Twilight
Nautical Twilight
Astronomical Twilight
Moon
Length of Visible Light
Length of Day
Tomorrow will be .
, % of the Moon is Illuminated

Today's Extremes

State Highs State Lows

Community

WunderPhotos

Upload Photos

1,927,275 photos uploaded!

WunderBlog® & News

Nearby

Air Quality

  Air Quality AQ Index Pollutant
Not available.

Snow Depth

Station Depth Elevation

Earthquake Activity

City Distance Mag. Time & Date
Minimum magnitude displayed is 2.5.

Coastal Water Temperatures

Place Temperature

Stations

Nearby Weather Stations

Station Location Temp. Windchill Dew Point Humidity Wind Precip. Elev Updated Type
                   

Watches & Warnings

There are currently no watches in effect.